INFORMACIÓN METAR y TAF
METAR FOR DTTJ
ADDS - METARS form results

(0718 UTC 20 January 2020)
Data provider http://aviationweather.gov/metar/data/
 
METAR text: DTTJ 200700Z 15010KT 9999 SCT033 11/04 Q1020 NOSIG
Conditions at: DTTJ (DJERBA MELLITA , TN) observed 0700 UTC 20 January 2020
Temperature: 11.0°C (52°F)
Dewpoint: 4.0°C (39°F) [RH = 62%]
Pressure (altimeter): 30.12 inches Hg (1020.0 mb)
Winds: from the SSE (150 degrees) at 12 MPH (10 knots; 5.1 m/s)
Visibility: 6 or more miles (10+ km)
Ceiling: at least 12,000 feet AGL
Clouds: scattered clouds at 3300 feet AGL
Weather: no significant weather observed at this time

METAR text: DTTJ 200630Z 15012KT 9999 SCT033 11/04 Q1020 NOSIG
Conditions at: DTTJ (DJERBA MELLITA , TN) observed 0630 UTC 20 January 2020
Temperature: 11.0°C (52°F)
Dewpoint: 4.0°C (39°F) [RH = 62%]
Pressure (altimeter): 30.12 inches Hg (1020.0 mb)
Winds: from the SSE (150 degrees) at 14 MPH (12 knots; 6.2 m/s)
Visibility: 6 or more miles (10+ km)
Ceiling: at least 12,000 feet AGL
Clouds: scattered clouds at 3300 feet AGL
Weather: no significant weather observed at this time

Forecast for: DTTJ (DJERBA MELLITA , TN)
Text: TAF DTTJ 200500Z 2006/2106 14010KT 9999 FEW026
Forecast period: 0600 to 1000 UTC 20 January 2020
Forecast type: FROM: standard forecast or significant change
Winds: from the SE (140 degrees) at 12 MPH (10 knots; 5.1 m/s)
Visibility: 6 or more miles 10+ km)
Ceiling: at least 12,000 feet AGL
Clouds: few clouds at 2600 feet AGL
Weather: no significant weather forecast for this period
Text: BECMG 2010/2012 12020G32KT
Forecast period: 1000 UTC 20 January 2020 to 0600 UTC 21 January 2020
Forecast type: BECOMING: Conditions expected to become as follows by 1200 UTC 20 January 2020
Winds: from the ESE (120 degrees) at 23 MPH (20 knots; 10.3 m/s)
gusting to 37 MPH (32 knots; 16.5 m/s)
Visibility: 6 or more miles 10+ km)
Ceiling: at least 12,000 feet AGL
Clouds: few clouds at 2600 feet AGL
Weather: no significant weather forecast for this period

MAPA DE AEROPUERTO

INFORMACIÓN DE PISTA
Pista 09 Longitud 10171 ft Ancho 148 ft
Elevación 9 ft Umbral desplazado 0 ft Rumbo de pista 88
Pista 27 Longitud 10171 ft Ancho 148 ft
Elevación 18 ft Umbral desplazado 0 ft Rumbo de pista 268

FRECUANCIAS DEL AEROPUERTO
Tipo APP Nombre DJERBA APP Frecuencia 120.3 MHZ
Tipo TWR Nombre DJERBA TWR Frecuencia 118.15 MHZ

RADIO AYUDAS DEL AEROPUERTO
Tipo VOR-DME Nombre Djerba Frecuencia 112200 KHZ